Time;durP1;ratioP1;P1;durP2;ratioP2;P2;SDS_P1;SDS_P2;PMS_P1;PMS_P2;Temp;Humidity;BMP_temperature;BMP_pressure;BME280_temperature;BME280_humidity;BME280_pressure;Samples;Min_cycle;Max_cycle;Signal;HPM_P1;HPM_P2
2022/10/13 00:01:04;;;;;;;66.20;31.23;;;;;;;4.31;79.73;99401.98;1671319;85;25688;-57
2022/10/13 00:03:27;;;;;;;61.42;30.02;;;;;;;4.35;79.14;99403.11;1670619;85;25751;-55
2022/10/13 00:05:54;;;;;;;60.30;29.40;;;;;;;4.39;79.35;99411.58;1671460;85;25631;-56
2022/10/13 00:08:21;;;;;;;58.68;29.82;;;;;;;4.43;78.98;99417.33;1671507;85;25536;-56
2022/10/13 00:10:50;;;;;;;48.78;23.20;;;;;;;4.43;79.07;99404.55;1671425;85;25882;-56
2022/10/13 00:13:17;;;;;;;48.00;22.80;;;;;;;4.45;80.01;99401.59;1671544;85;25639;-57
2022/10/13 00:15:46;;;;;;;53.78;25.90;;;;;;;4.42;79.98;99400.73;1671334;85;27468;-58
2022/10/13 00:18:13;;;;;;;44.23;22.00;;;;;;;4.42;79.94;99402.92;1671371;85;25680;-56
2022/10/13 00:20:47;;;;;;;38.40;20.82;;;;;;;4.43;80.32;99396.41;1671162;85;25505;-56
2022/10/13 00:23:15;;;;;;;35.88;19.25;;;;;;;4.49;81.07;99397.31;1671416;85;26582;-56
2022/10/13 00:25:46;;;;;;;42.08;20.32;;;;;;;4.49;81.00;99393.24;1671603;85;25611;-55
2022/10/13 00:28:14;;;;;;;34.78;19.23;;;;;;;4.50;80.94;99395.70;1671612;85;28307;-56
2022/10/13 00:30:41;;;;;;;37.23;18.90;;;;;;;4.55;81.25;99398.98;1671433;85;25724;-56
2022/10/13 00:33:10;;;;;;;35.98;19.50;;;;;;;4.57;81.30;99396.84;1671451;85;25705;-56
2022/10/13 00:35:42;;;;;;;40.35;19.25;;;;;;;4.58;81.47;99394.40;1671459;85;25674;-56
2022/10/13 00:38:08;;;;;;;34.25;18.73;;;;;;;4.59;81.83;99394.70;1671530;85;25530;-56
2022/10/13 00:40:47;;;;;;;34.50;18.67;;;;;;;4.59;81.69;99394.70;1671574;85;27648;-56
2022/10/13 00:43:27;;;;;;;34.67;18.27;;;;;;;4.62;81.85;99387.41;1671451;85;25747;-57
2022/10/13 00:45:54;;;;;;;40.95;19.67;;;;;;;4.64;81.53;99390.66;1671363;85;25694;-56
2022/10/13 00:48:25;;;;;;;35.13;18.85;;;;;;;4.73;81.65;99388.86;1671132;85;26502;-56
2022/10/13 00:50:51;;;;;;;;;;;;;;;4.77;81.16;99391.33;1672941;85;25709;-56
2022/10/13 00:53:22;;;;;;;33.85;18.30;;;;;;;4.82;81.17;99391.39;1671208;85;27540;-56
2022/10/13 00:55:50;;;;;;;;;;;;;;;4.83;81.23;99393.02;1673849;85;25867;-56
2022/10/13 00:58:20;;;;;;;32.20;17.85;;;;;;;4.84;80.85;99387.06;1671382;85;25563;-56
2022/10/13 01:00:50;;;;;;;37.70;18.10;;;;;;;4.81;81.05;99385.66;1671443;85;25854;-56
2022/10/13 01:03:19;;;;;;;39.70;18.73;;;;;;;4.78;80.99;99386.20;1671437;85;25486;-56
2022/10/13 01:05:50;;;;;;;41.68;20.20;;;;;;;4.65;81.25;99390.13;1671179;85;27423;-56
2022/10/13 01:08:19;;;;;;;34.60;18.83;;;;;;;4.56;81.30;99382.99;1671830;85;25710;-58
2022/10/13 01:11:07;;;;;;;35.95;19.67;;;;;;;4.51;81.26;99389.19;1671521;85;25572;-56
2022/10/13 01:14:09;;;;;;;38.55;20.43;;;;;;;4.49;81.37;99381.83;1671544;85;25985;-57
2022/10/13 01:17:04;;;;;;;40.50;20.82;;;;;;;4.50;81.79;99381.30;1656115;85;25676;-58
2022/10/13 01:20:08;;;;;;;36.73;19.55;;;;;;;4.51;81.76;99372.07;1641528;87;27371;-56
2022/10/13 01:23:01;;;;;;;38.45;22.13;;;;;;;4.49;81.64;99362.83;1644058;87;25476;-57
2022/10/13 01:25:58;;;;;;;37.25;19.25;;;;;;;4.47;82.13;99362.81;1643431;87;25518;-56
2022/10/13 01:28:47;;;;;;;36.55;19.62;;;;;;;4.50;82.97;99367.73;1644142;86;26546;-56
2022/10/13 01:31:34;;;;;;;39.48;20.88;;;;;;;4.52;83.14;99366.39;1644193;87;25722;-56
2022/10/13 01:34:24;;;;;;;39.45;20.82;;;;;;;4.56;82.91;99364.52;1644238;86;28390;-58
2022/10/13 01:37:17;;;;;;;38.30;22.00;;;;;;;4.58;82.56;99366.45;1644079;86;25695;-56
2022/10/13 01:39:48;;;;;;;42.20;23.25;;;;;;;4.59;82.45;99369.44;1644476;86;25492;-56
2022/10/13 01:42:21;;;;;;;41.98;22.82;;;;;;;4.63;81.82;99371.39;1641392;87;25768;-56
2022/10/13 01:44:52;;;;;;;46.10;23.22;;;;;;;4.61;81.65;99358.59;1644570;85;25533;-55
2022/10/13 01:47:19;;;;;;;39.60;21.45;;;;;;;4.60;81.58;99361.03;1644490;87;27439;-56
2022/10/13 01:49:46;;;;;;;43.38;21.73;;;;;;;4.57;81.79;99366.98;1634789;87;25502;-56
2022/10/13 01:52:16;;;;;;;39.85;21.77;;;;;;;4.58;81.70;99365.89;1644127;86;25497;-56
2022/10/13 01:54:50;;;;;;;40.73;21.57;;;;;;;4.58;81.68;99368.61;1644720;86;26688;-56
2022/10/13 01:57:40;;;;;;;41.75;21.30;;;;;;;4.55;81.62;99365.61;1644244;87;25479;-55
2022/10/13 02:00:15;;;;;;;41.33;22.45;;;;;;;4.48;81.59;99354.94;1644112;86;28282;-57
2022/10/13 02:03:26;;;;;;;42.38;23.30;;;;;;;4.40;81.91;99358.92;1641882;87;26029;-54
2022/10/13 02:06:17;;;;;;;41.73;23.35;;;;;;;4.40;81.84;99356.21;1643628;87;25521;-55
2022/10/13 02:09:10;;;;;;;42.98;22.25;;;;;;;4.39;81.58;99356.77;1643711;87;25600;-56
2022/10/13 02:11:42;;;;;;;44.85;23.00;;;;;;;4.38;81.33;99351.04;1644060;87;25674;-56
2022/10/13 02:14:19;;;;;;;38.67;21.95;;;;;;;4.31;81.30;99340.93;1644734;86;28226;-55
2022/10/13 02:16:49;;;;;;;43.05;22.48;;;;;;;4.26;81.57;99343.05;1655899;85;25454;-56
2022/10/13 02:19:17;;;;;;;36.20;20.62;;;;;;;4.23;81.39;99345.47;1671257;85;25730;-55
2022/10/13 02:21:45;;;;;;;35.48;20.35;;;;;;;4.26;81.68;99349.03;1671748;85;25773;-56
2022/10/13 02:24:12;;;;;;;40.83;21.33;;;;;;;4.26;81.73;99338.98;1671649;85;25622;-59
2022/10/13 02:26:40;;;;;;;39.30;21.52;;;;;;;4.26;81.75;99348.48;1671485;85;28412;-56
2022/10/13 02:29:11;;;;;;;41.53;22.30;;;;;;;4.21;82.49;99337.59;1671584;85;25679;-56
2022/10/13 02:31:39;;;;;;;35.28;18.95;;;;;;;4.17;82.46;99336.44;1671622;85;25652;-56
2022/10/13 02:34:06;;;;;;;40.73;20.77;;;;;;;4.07;82.70;99334.97;1671564;85;25727;-56
2022/10/13 02:36:34;;;;;;;47.62;24.23;;;;;;;3.96;83.42;99329.44;1671233;85;25508;-56
2022/10/13 02:39:00;;;;;;;41.25;20.80;;;;;;;3.90;83.58;99326.38;1671470;85;27690;-55
2022/10/13 02:41:26;;;;;;;49.40;26.07;;;;;;;3.89;84.32;99332.33;1671428;85;25714;-58
2022/10/13 02:43:53;;;;;;;51.45;24.87;;;;;;;3.94;84.14;99326.70;1671260;85;25470;-59
2022/10/13 02:46:19;;;;;;;45.83;23.60;;;;;;;3.94;84.55;99323.98;1671274;85;25913;-56
2022/10/13 02:48:45;;;;;;;48.90;24.50;;;;;;;3.89;84.63;99323.39;1671705;85;25523;-56
2022/10/13 02:51:11;;;;;;;47.93;23.25;;;;;;;3.92;84.89;99329.66;1671252;85;27508;-56
2022/10/13 02:53:37;;;;;;;50.33;24.32;;;;;;;3.89;85.78;99320.67;1671599;85;25471;-56
2022/10/13 02:56:06;;;;;;;49.98;25.45;;;;;;;3.87;85.38;99318.22;1671226;85;25508;-55
2022/10/13 02:58:33;;;;;;;54.35;26.75;;;;;;;3.88;85.57;99317.66;1671245;85;25803;-56
2022/10/13 03:01:12;;;;;;;53.05;26.33;;;;;;;3.93;85.59;99310.95;1671549;85;25649;-56
2022/10/13 03:03:39;;;;;;;56.00;26.23;;;;;;;3.98;85.58;99308.84;1671523;85;27408;-56
2022/10/13 03:06:06;;;;;;;52.65;26.37;;;;;;;4.01;85.61;99308.33;1671641;85;25665;-56
2022/10/13 03:08:34;;;;;;;47.30;25.85;;;;;;;4.08;85.27;99304.05;1671700;85;25515;-56
2022/10/13 03:11:01;;;;;;;49.83;26.30;;;;;;;4.15;85.12;99303.34;1671448;85;25697;-58
2022/10/13 03:13:27;;;;;;;53.78;26.60;;;;;;;4.20;84.62;99302.57;1671239;85;25679;-58
2022/10/13 03:15:53;;;;;;;54.98;25.65;;;;;;;4.25;84.51;99295.83;1671196;85;27388;-57
2022/10/13 03:18:20;;;;;;;53.65;26.93;;;;;;;4.26;84.69;99302.91;1671485;85;25642;-57
2022/10/13 03:20:56;;;;;;;48.75;27.10;;;;;;;4.23;84.40;99303.42;1671311;85;25485;-56
2022/10/13 03:23:23;;;;;;;53.83;28.12;;;;;;;4.21;84.42;99305.03;1670687;85;25801;-55
2022/10/13 03:25:49;;;;;;;56.40;28.20;;;;;;;4.20;84.36;99303.38;1671199;85;25477;-55
2022/10/13 03:28:15;;;;;;;55.05;27.62;;;;;;;4.20;84.45;99312.07;1671205;85;27433;-56
2022/10/13 03:30:41;;;;;;;57.20;28.65;;;;;;;4.18;84.38;99311.49;1671099;85;25516;-56
2022/10/13 03:33:07;;;;;;;55.88;28.57;;;;;;;4.19;84.29;99304.98;1671312;85;25744;-56
2022/10/13 03:35:33;;;;;;;59.00;28.67;;;;;;;4.20;84.20;99312.07;1671113;85;25721;-56
2022/10/13 03:38:00;;;;;;;55.12;30.12;;;;;;;4.22;84.10;99305.83;1651934;85;25679;-56
2022/10/13 03:40:26;;;;;;;53.87;29.48;;;;;;;4.24;83.97;99311.83;1671716;85;27455;-56
2022/10/13 03:42:52;;;;;;;59.05;28.40;;;;;;;4.24;83.83;99306.41;1671456;85;25923;-58
2022/10/13 03:45:18;;;;;;;50.50;28.25;;;;;;;4.23;83.81;99308.84;1671522;85;25536;-56
2022/10/13 03:47:44;;;;;;;53.90;28.70;;;;;;;4.23;83.91;99312.36;1671537;85;26582;-56
2022/10/13 03:50:11;;;;;;;51.10;27.32;;;;;;;4.20;83.86;99307.44;1671493;85;25467;-56
2022/10/13 03:52:37;;;;;;;48.80;25.97;;;;;;;4.16;83.92;99310.39;1671653;85;27594;-56
2022/10/13 03:55:05;;;;;;;52.88;27.62;;;;;;;4.14;84.17;99308.45;1671443;85;25702;-56
2022/10/13 03:57:31;;;;;;;51.53;26.82;;;;;;;4.14;84.41;99316.07;1671452;85;25722;-57
2022/10/13 04:00:00;;;;;;;52.73;29.10;;;;;;;4.18;84.29;99310.97;1671105;85;25798;-57
2022/10/13 04:02:32;;;;;;;52.62;28.92;;;;;;;4.18;84.22;99310.97;1671562;85;25655;-56
2022/10/13 04:05:05;;;;;;;71.20;32.00;;;;;;;4.13;83.77;99313.61;1671683;85;27639;-56
2022/10/13 04:07:37;;;;;;;95.92;38.55;;;;;;;4.07;83.82;99310.03;1671332;85;25852;-56
2022/10/13 04:10:03;;;;;;;76.07;33.30;;;;;;;4.06;83.84;99315.16;1671343;85;25553;-56
2022/10/13 04:12:30;;;;;;;90.53;36.42;;;;;;;4.05;83.53;99316.23;1671147;85;25853;-56
2022/10/13 04:14:56;;;;;;;78.75;34.18;;;;;;;4.00;83.42;99320.27;1671175;85;25713;-56
2022/10/13 04:17:23;;;;;;;64.25;30.90;;;;;;;4.03;83.38;99322.44;1657764;85;27389;-55
2022/10/13 04:19:49;;;;;;;59.58;28.67;;;;;;;3.92;82.47;99314.75;1644185;87;25534;-57
2022/10/13 04:22:16;;;;;;;48.52;25.82;;;;;;;3.85;82.42;99312.74;1644549;87;25612;-56
2022/10/13 04:24:42;;;;;;;45.30;25.37;;;;;;;3.72;82.04;99313.95;1644093;87;25803;-56
2022/10/13 04:27:09;;;;;;;56.53;28.25;;;;;;;3.58;82.21;99315.69;1644289;87;25812;-57
2022/10/13 04:29:35;;;;;;;57.93;28.85;;;;;;;3.45;82.56;99310.08;1644360;87;27437;-57
2022/10/13 04:32:01;;;;;;;59.53;29.37;;;;;;;3.35;82.53;99308.59;1644158;86;25628;-55
2022/10/13 04:34:27;;;;;;;56.95;29.80;;;;;;;3.27;82.50;99308.48;1644132;87;25538;-56
2022/10/13 04:36:54;;;;;;;53.35;28.15;;;;;;;3.14;82.59;99303.70;1640840;87;25917;-56
2022/10/13 04:39:20;;;;;;;53.35;27.35;;;;;;;3.04;82.57;99308.13;1644117;87;25691;-55
2022/10/13 04:41:46;;;;;;;46.18;25.25;;;;;;;2.95;82.53;99303.16;1644098;87;27596;-59
2022/10/13 04:44:12;;;;;;;47.90;25.20;;;;;;;2.88;82.62;99303.30;1644245;86;25823;-56
2022/10/13 04:46:38;;;;;;;49.85;26.07;;;;;;;2.82;82.50;99311.61;1644025;87;25731;-57
2022/10/13 04:49:05;;;;;;;51.02;28.57;;;;;;;2.75;82.24;99308.53;1644379;86;25821;-57
2022/10/13 04:51:31;;;;;;;56.20;27.50;;;;;;;2.65;82.28;99304.83;1642819;86;25699;-57
2022/10/13 04:54:00;;;;;;;58.33;27.35;;;;;;;2.57;82.61;99296.06;1624311;87;27845;-57
2022/10/13 04:56:27;;;;;;;51.50;27.40;;;;;;;2.59;82.79;99295.27;1644393;87;25918;-56
2022/10/13 04:58:53;;;;;;;76.47;38.25;;;;;;;2.64;82.95;99297.23;1644109;87;25482;-57
2022/10/13 05:01:24;;;;;;;73.17;36.42;;;;;;;2.71;83.17;99294.38;1644166;87;25849;-56
2022/10/13 05:03:54;;;;;;;50.33;25.62;;;;;;;2.79;83.61;99283.13;1644845;86;25469;-57
2022/10/13 05:06:24;;;;;;;48.68;25.72;;;;;;;2.78;83.62;99293.67;1644550;86;28106;-57
2022/10/13 05:08:51;;;;;;;54.03;27.77;;;;;;;2.74;83.83;99306.06;1638753;87;25850;-57
2022/10/13 05:11:19;;;;;;;58.63;28.98;;;;;;;2.75;84.14;99305.83;1624519;87;25636;-56
2022/10/13 05:13:47;;;;;;;49.00;26.07;;;;;;;2.83;84.39;99299.70;1625023;87;26030;-58
2022/10/13 05:16:16;;;;;;;52.88;28.27;;;;;;;2.81;84.05;99298.59;1644079;87;25740;-57
2022/10/13 05:18:43;;;;;;;50.92;26.40;;;;;;;2.78;84.41;99297.73;1668803;85;27457;-56
2022/10/13 05:21:14;;;;;;;52.73;27.52;;;;;;;2.83;84.65;99300.53;1670945;85;27130;-56
2022/10/13 05:23:41;;;;;;;49.98;25.82;;;;;;;2.91;84.76;99303.37;1671413;85;25635;-57
2022/10/13 05:26:12;;;;;;;56.25;27.85;;;;;;;2.99;84.83;99304.29;1671079;85;25868;-57
2022/10/13 05:28:39;;;;;;;49.15;27.05;;;;;;;3.12;84.84;99310.44;1671643;85;25544;-57
2022/10/13 05:31:21;;;;;;;51.15;25.00;;;;;;;3.18;84.58;99295.07;1671121;85;27586;-56
2022/10/13 05:33:49;;;;;;;44.00;24.18;;;;;;;3.19;84.65;99304.30;1671358;85;25671;-57
2022/10/13 05:36:19;;;;;;;42.00;22.45;;;;;;;3.21;84.83;99302.70;1665150;85;25721;-56
2022/10/13 05:38:51;;;;;;;42.30;21.70;;;;;;;3.26;84.92;99306.30;1671273;85;26041;-58
2022/10/13 05:41:17;;;;;;;42.33;22.45;;;;;;;3.30;84.75;99309.34;1680809;84;25465;-56
2022/10/13 05:43:43;;;;;;;39.18;21.30;;;;;;;3.22;84.65;99308.39;1668392;85;28215;-57
2022/10/13 05:46:10;;;;;;;44.38;23.90;;;;;;;3.20;85.08;99306.48;1687836;84;25738;-58
2022/10/13 05:48:37;;;;;;;33.50;18.17;;;;;;;3.15;84.94;99307.23;1687760;84;25647;-57
2022/10/13 05:51:09;;;;;;;44.73;23.25;;;;;;;3.11;85.30;99304.19;1687888;85;25689;-57
2022/10/13 05:53:39;;;;;;;46.95;24.25;;;;;;;3.05;85.32;99308.44;1687810;84;25492;-57
2022/10/13 05:56:10;;;;;;;41.08;22.20;;;;;;;3.01;85.44;99313.52;1687949;84;28282;-57
2022/10/13 05:58:48;;;;;;;56.35;26.35;;;;;;;2.97;85.27;99307.77;1687691;85;25498;-57
2022/10/13 06:01:18;;;;;;;41.30;21.68;;;;;;;2.93;85.77;99309.89;1687022;85;25615;-60
2022/10/13 06:03:47;;;;;;;34.95;19.20;;;;;;;2.86;85.69;99314.94;1687698;84;25789;-60
2022/10/13 06:06:14;;;;;;;44.93;23.52;;;;;;;2.84;85.90;99318.41;1688067;84;25679;-61
2022/10/13 06:08:41;;;;;;;52.05;26.45;;;;;;;2.90;86.20;99317.95;1687848;85;27987;-61
2022/10/13 06:11:08;;;;;;;47.45;21.75;;;;;;;3.12;86.40;99318.03;1687554;85;25935;-57
2022/10/13 06:13:35;;;;;;;35.60;20.90;;;;;;;3.27;85.58;99315.25;1687515;84;25689;-57
2022/10/13 06:16:01;;;;;;;38.35;21.02;;;;;;;3.34;85.44;99306.41;1687783;84;25867;-58
2022/10/13 06:18:28;;;;;;;26.48;14.60;;;;;;;3.38;85.01;99306.22;1674345;85;25627;-57
2022/10/13 06:20:54;;;;;;;30.32;17.40;;;;;;;3.27;85.46;99308.48;1668172;86;27457;-58
2022/10/13 06:23:20;;;;;;;38.88;20.75;;;;;;;3.18;85.96;99301.84;1667432;86;27096;-59
2022/10/13 06:25:48;;;;;;;33.35;19.42;;;;;;;3.22;86.18;99305.16;1667585;86;25720;-59
2022/10/13 06:28:15;;;;;;;29.37;16.80;;;;;;;3.26;86.04;99308.20;1667921;86;25695;-59
2022/10/13 06:30:45;;;;;;;30.15;16.80;;;;;;;3.28;86.37;99310.11;1668187;86;25442;-58
2022/10/13 06:33:09;;;;;;;48.80;24.98;;;;;;;3.28;86.45;99306.05;1667579;85;26166;-60
2022/10/13 06:35:36;;;;;;;49.90;24.80;;;;;;;3.40;86.50;99318.16;1667674;86;25722;-57
2022/10/13 06:38:02;;;;;;;43.78;22.62;;;;;;;3.57;86.67;99311.88;1668035;86;25494;-60
2022/10/13 06:40:28;;;;;;;40.48;22.30;;;;;;;3.66;86.21;99317.14;1663775;86;26105;-61
2022/10/13 06:42:55;;;;;;;42.00;23.40;;;;;;;3.76;86.05;99309.66;1667801;86;25712;-60
2022/10/13 06:45:21;;;;;;;46.90;22.67;;;;;;;3.91;86.58;99317.16;1667737;85;27486;-56
2022/10/13 06:47:47;;;;;;;44.10;23.73;;;;;;;4.12;86.03;99314.14;1667859;86;25863;-58
2022/10/13 06:50:14;;;;;;;42.10;23.67;;;;;;;4.34;86.17;99305.15;1667740;85;25636;-57
2022/10/13 06:52:42;;;;;;;41.65;23.57;;;;;;;4.60;85.88;99311.34;1667492;86;25727;-58
2022/10/13 06:55:08;;;;;;;38.30;22.40;;;;;;;4.86;85.66;99309.67;1667845;86;25635;-57
2022/10/13 06:57:35;;;;;;;40.52;22.62;;;;;;;5.12;85.30;99307.14;1668044;85;27475;-58
2022/10/13 07:00:01;;;;;;;34.63;18.95;;;;;;;5.33;84.87;99303.22;1667551;85;25717;-59
2022/10/13 07:02:28;;;;;;;33.75;20.17;;;;;;;5.44;84.53;99301.91;1667847;86;25676;-57
2022/10/13 07:04:54;;;;;;;32.45;16.82;;;;;;;5.53;84.55;99303.05;1667706;86;25633;-57
2022/10/13 07:07:20;;;;;;;38.98;22.37;;;;;;;5.64;84.06;99296.56;1667622;86;25782;-57
2022/10/13 07:09:47;;;;;;;37.67;22.58;;;;;;;5.74;84.36;99296.33;1667581;86;27421;-61
2022/10/13 07:12:13;;;;;;;37.42;22.82;;;;;;;5.94;84.73;99296.12;1667852;85;25942;-57
2022/10/13 07:14:40;;;;;;;27.95;16.12;;;;;;;6.17;84.03;99296.77;1668088;86;25443;-57
2022/10/13 07:17:06;;;;;;;43.73;22.82;;;;;;;6.30;83.20;99300.33;1667520;85;25796;-61
2022/10/13 07:19:33;;;;;;;35.73;20.60;;;;;;;6.39;83.55;99297.36;1677270;85;25448;-58
2022/10/13 07:21:59;;;;;;;39.15;21.75;;;;;;;6.61;83.05;99292.74;1685877;85;28283;-60
2022/10/13 07:24:26;;;;;;;38.80;21.25;;;;;;;6.66;82.01;99292.76;1687430;84;25473;-61
2022/10/13 07:26:53;;;;;;;34.20;19.23;;;;;;;6.83;82.75;99300.66;1687683;85;25476;-60
2022/10/13 07:29:19;;;;;;;33.42;21.37;;;;;;;7.06;82.11;99296.28;1687392;84;27747;-61
2022/10/13 07:31:46;;;;;;;38.88;21.55;;;;;;;7.12;81.18;99287.83;1687850;85;25712;-61
2022/10/13 07:34:14;;;;;;;34.30;20.52;;;;;;;7.21;81.26;99282.63;1687321;85;27449;-61
2022/10/13 07:36:40;;;;;;;30.05;16.17;;;;;;;7.37;80.75;99286.13;1687573;85;25489;-58
2022/10/13 07:39:08;;;;;;;37.35;21.95;;;;;;;7.42;79.55;99282.56;1683651;84;25638;-60
2022/10/13 07:41:36;;;;;;;28.60;16.20;;;;;;;7.54;80.15;99278.16;1687464;85;25833;-60
2022/10/13 07:44:02;;;;;;;33.02;17.82;;;;;;;7.80;78.79;99271.80;1687494;84;25466;-61
2022/10/13 07:46:29;;;;;;;30.55;18.07;;;;;;;7.84;78.64;99276.42;1687607;84;27609;-61
2022/10/13 07:48:55;;;;;;;34.65;20.82;;;;;;;8.08;78.86;99278.47;1687328;85;25708;-57
2022/10/13 07:51:23;;;;;;;30.08;18.92;;;;;;;8.41;78.76;99273.91;1687385;85;25512;-61
2022/10/13 07:53:49;;;;;;;30.00;17.15;;;;;;;8.79;77.36;99276.11;1687365;85;25724;-60
2022/10/13 07:56:16;;;;;;;23.57;14.45;;;;;;;8.88;75.57;99272.20;1687430;85;25718;-60
2022/10/13 07:58:45;;;;;;;29.25;19.02;;;;;;;8.91;75.28;99272.45;1687412;85;27492;-58
2022/10/13 08:01:13;;;;;;;30.30;20.88;;;;;;;9.13;76.13;99269.76;1687500;85;25535;-58
2022/10/13 08:03:41;;;;;;;37.20;23.45;;;;;;;9.35;75.36;99264.89;1687775;84;25703;-60
2022/10/13 08:06:08;;;;;;;35.35;24.10;;;;;;;9.65;75.77;99265.66;1687696;85;25750;-58
2022/10/13 08:08:35;;;;;;;39.38;24.27;;;;;;;10.16;74.92;99260.05;1687458;85;25550;-58
2022/10/13 08:11:08;;;;;;;36.40;23.38;;;;;;;10.47;74.26;99264.27;1687636;85;27464;-61
2022/10/13 08:13:35;;;;;;;40.35;25.82;;;;;;;11.01;72.76;99262.57;1687588;85;25552;-57
2022/10/13 08:16:04;;;;;;;37.25;20.88;;;;;;;11.31;72.31;99256.01;1687643;85;25769;-57
2022/10/13 08:18:31;;;;;;;35.15;22.37;;;;;;;11.55;70.33;99259.92;1679067;85;25784;-58
2022/10/13 08:21:01;;;;;;;40.63;25.43;;;;;;;11.63;69.43;99254.28;1667668;86;25710;-59
2022/10/13 08:23:27;;;;;;;37.55;23.83;;;;;;;11.92;70.11;99251.75;1667504;86;27475;-57
2022/10/13 08:25:54;;;;;;;34.45;23.77;;;;;;;12.38;68.60;99249.11;1667791;86;25723;-58
2022/10/13 08:28:27;;;;;;;31.82;20.25;;;;;;;12.60;68.32;99237.84;1732065;81;25575;-57
2022/10/13 08:30:58;;;;;;;30.12;21.15;;;;;;;12.90;67.57;99238.21;1721110;83;25706;-58
2022/10/13 08:33:26;;;;;;;27.75;19.00;;;;;;;13.40;67.38;99250.91;1731972;82;25683;-57
2022/10/13 08:35:52;;;;;;;23.83;17.10;;;;;;;13.90;66.50;99239.86;1714066;83;27374;-58
2022/10/13 08:38:19;;;;;;;25.02;18.17;;;;;;;14.38;62.90;99240.06;1732301;82;25664;-59
2022/10/13 08:40:50;;;;;;;28.20;20.12;;;;;;;14.49;62.42;99237.22;1714209;83;25484;-59
2022/10/13 08:43:20;;;;;;;29.05;21.02;;;;;;;14.73;62.95;99231.74;1732174;82;25673;-58
2022/10/13 08:45:51;;;;;;;29.70;21.52;;;;;;;15.11;63.72;99245.97;1714415;83;25602;-58
2022/10/13 08:48:29;;;;;;;24.30;19.52;;;;;;;15.53;60.26;99246.12;1732489;82;28206;-59
2022/10/13 08:51:00;;;;;;;26.87;19.55;;;;;;;15.58;61.13;99238.22;1714009;83;25618;-58
2022/10/13 08:53:40;;;;;;;27.58;20.37;;;;;;;16.09;60.42;99232.47;1731372;82;25700;-58
2022/10/13 08:56:26;;;;;;;26.30;19.23;;;;;;;16.63;60.94;99231.67;1714489;83;25880;-57
2022/10/13 08:58:55;;;;;;;27.48;20.32;;;;;;;16.92;56.93;99224.94;1714234;83;25426;-57
2022/10/13 09:01:39;;;;;;;29.65;21.50;;;;;;;17.06;59.21;99217.13;1731883;82;27478;-58
2022/10/13 09:04:29;;;;;;;26.70;21.05;;;;;;;17.61;56.94;99218.90;1712059;83;25618;-57
2022/10/13 09:07:09;;;;;;;26.50;17.82;;;;;;;18.12;56.79;99223.23;1731887;82;25490;-58
2022/10/13 09:09:37;;;;;;;25.15;18.90;;;;;;;18.66;52.17;99225.34;1714449;83;27025;-58
2022/10/13 09:12:05;;;;;;;25.65;18.87;;;;;;;19.01;54.64;99217.50;1731917;81;25498;-57
2022/10/13 09:14:37;;;;;;;24.77;17.90;;;;;;;19.30;52.11;99216.28;1714249;83;27439;-63
2022/10/13 09:17:25;;;;;;;22.37;18.30;;;;;;;19.53;50.74;99220.38;1732117;82;25214;-62
2022/10/13 09:20:09;;;;;;;22.25;16.37;;;;;;;19.52;50.50;99215.99;1714345;83;25445;-62
2022/10/13 09:22:39;;;;;;;23.15;17.48;;;;;;;19.33;48.02;99216.14;1730414;82;25579;-62
2022/10/13 09:25:19;;;;;;;24.30;18.27;;;;;;;19.14;49.99;99209.93;1714503;83;25471;-60
2022/10/13 09:27:58;;;;;;;22.07;17.35;;;;;;;19.53;50.71;99212.04;1738553;82;28079;-58
2022/10/13 09:30:50;;;;;;;21.23;17.30;;;;;;;20.13;50.01;99207.42;1744078;82;25622;-58
2022/10/13 09:33:23;;;;;;;25.15;18.32;;;;;;;20.53;47.61;99202.04;1744106;82;25616;-60
2022/10/13 09:36:06;;;;;;;26.20;18.62;;;;;;;20.84;46.76;99194.45;1743703;82;25689;-58
2022/10/13 09:38:33;;;;;;;25.52;18.40;;;;;;;20.89;47.38;99199.70;1744363;82;25609;-58
2022/10/13 09:41:16;;;;;;;24.57;18.62;;;;;;;21.07;45.39;99191.69;1744186;82;28296;-60
2022/10/13 09:43:51;;;;;;;22.42;17.35;;;;;;;21.16;46.58;99195.02;1707267;83;25893;-58
2022/10/13 09:46:35;;;;;;;24.00;19.95;;;;;;;21.66;46.88;99188.62;1744417;82;25433;-58
2022/10/13 09:49:09;;;;;;;23.47;18.27;;;;;;;22.29;45.99;99196.65;1744246;82;25916;-58
2022/10/13 09:51:43;;;;;;;21.82;16.02;;;;;;;22.37;43.11;99184.98;1724156;82;25702;-57
2022/10/13 09:54:38;;;;;;;20.82;16.20;;;;;;;22.34;43.35;99184.92;1744072;82;27749;-58
2022/10/13 09:57:39;;;;;;;22.73;17.10;;;;;;;22.80;43.46;99188.82;1743542;82;25590;-61
2022/10/13 10:00:20;;;;;;;18.00;13.35;;;;;;;23.35;42.57;99181.49;1742344;82;25468;-59
2022/10/13 10:02:57;;;;;;;17.98;13.28;;;;;;;23.82;41.47;99183.21;1740690;82;25829;-59
2022/10/13 10:05:44;;;;;;;17.95;14.03;;;;;;;24.03;39.56;99178.91;1724657;82;25662;-60
2022/10/13 10:08:25;;;;;;;17.87;13.60;;;;;;;24.21;39.61;99183.82;1743994;82;27772;-60
2022/10/13 10:10:53;;;;;;;19.75;14.53;;;;;;;24.40;39.47;99185.47;1743981;81;25566;-58
2022/10/13 10:13:19;;;;;;;15.00;12.28;;;;;;;24.52;38.49;99180.91;1743780;82;25664;-60
2022/10/13 10:15:57;;;;;;;17.32;12.47;;;;;;;24.74;38.44;99178.16;1744011;81;25888;-58
2022/10/13 10:18:37;;;;;;;14.20;11.80;;;;;;;24.67;38.06;99173.95;1744082;82;25676;-57
2022/10/13 10:21:27;;;;;;;13.40;10.75;;;;;;;24.50;38.03;99170.72;1661107;86;27550;-58
2022/10/13 10:24:17;;;;;;;13.58;9.13;;;;;;;24.50;35.82;99169.91;1626100;88;25682;-59
2022/10/13 10:26:47;;;;;;;;;;;;;;;24.48;35.96;99175.09;1628637;88;25744;-58
2022/10/13 10:29:53;;;;;;;14.40;10.43;;;;;;;24.52;36.16;99169.70;1626142;87;26087;-58
2022/10/13 10:32:30;;;;;;;15.00;12.63;;;;;;;24.59;36.34;99172.31;1637435;86;25551;-61
2022/10/13 10:35:20;;;;;;;17.50;12.35;;;;;;;24.30;36.48;99163.25;1660797;86;27572;-61
2022/10/13 10:37:53;;;;;;;;;;;;;;;23.97;37.15;99169.30;1628825;88;25692;-61
2022/10/13 10:40:25;;;;;;;43.40;33.58;;;;;;;23.66;37.38;99156.95;1626759;88;25536;-60
2022/10/13 10:43:31;;;;;;;26.10;21.65;;;;;;;23.25;38.22;99157.26;1659651;86;25855;-59
2022/10/13 10:46:00;;;;;;;17.60;12.75;;;;;;;23.01;38.46;99157.27;1660860;86;25754;-60
2022/10/13 10:48:37;;;;;;;17.00;12.63;;;;;;;22.66;38.74;99155.98;1626228;88;28170;-58
2022/10/13 10:51:07;;;;;;;14.78;11.93;;;;;;;22.51;39.12;99147.22;1659708;86;25695;-58
2022/10/13 10:53:48;;;;;;;;;;;;;;;22.44;39.00;99143.75;1663687;86;25831;-58
2022/10/13 10:56:32;;;;;;;14.60;11.57;;;;;;;22.38;39.22;99134.92;1671493;85;25767;-57
2022/10/13 10:59:13;;;;;;;15.55;11.53;;;;;;;22.51;39.05;99135.44;1702358;83;25501;-60
2022/10/13 11:01:59;;;;;;;14.30;9.98;;;;;;;22.66;38.66;99135.62;1743753;82;27830;-59
2022/10/13 11:04:48;;;;;;;14.55;11.12;;;;;;;22.60;38.17;99134.36;1725039;82;27208;-57
2022/10/13 11:07:29;;;;;;;16.07;10.65;;;;;;;22.46;39.43;99128.82;1743796;82;25478;-61
2022/10/13 11:10:16;;;;;;;13.28;10.28;;;;;;;22.32;40.20;99128.07;1744011;81;25736;-61
2022/10/13 11:12:57;;;;;;;15.75;10.70;;;;;;;22.13;41.11;99118.69;1743817;82;25667;-60
2022/10/13 11:15:43;;;;;;;17.35;11.12;;;;;;;21.76;41.21;99121.64;1744117;82;27435;-62
2022/10/13 11:18:58;;;;;;;20.30;14.65;;;;;;;21.76;41.43;99123.03;1725146;83;25456;-60
2022/10/13 11:21:25;;;;;;;15.95;11.78;;;;;;;21.90;40.98;99117.42;1743799;82;25664;-59
2022/10/13 11:23:51;;;;;;;19.20;13.35;;;;;;;21.79;41.48;99113.91;1744032;82;26355;-56
2022/10/13 11:26:40;;;;;;;18.02;13.65;;;;;;;21.70;42.10;99110.56;1743800;82;25609;-56
2022/10/13 11:29:12;;;;;;;16.77;12.58;;;;;;;21.66;42.45;99109.15;1739992;81;27465;-56
2022/10/13 11:31:52;;;;;;;20.65;12.70;;;;;;;21.49;42.77;99109.11;1723947;82;25848;-58
2022/10/13 11:34:28;;;;;;;17.98;12.58;;;;;;;21.31;43.05;99108.86;1739194;82;25488;-56
2022/10/13 11:36:59;;;;;;;15.85;11.90;;;;;;;21.21;44.36;99102.55;1739196;81;25717;-56
2022/10/13 11:39:28;;;;;;;;;;;;;;;20.91;43.42;99104.08;1741114;82;25679;-57
2022/10/13 11:42:21;;;;;;;22.32;13.75;;;;;;;20.69;44.63;99097.53;1710970;82;27452;-59
2022/10/13 11:45:01;;;;;;;20.23;13.93;;;;;;;20.58;44.69;99094.36;1715098;83;25464;-60
2022/10/13 11:47:54;;;;;;;18.50;12.15;;;;;;;20.58;44.79;99092.97;1698032;84;25737;-59